Warning: fopen(/var/www/metroair/shared/private/wxdata/metar/AVWX/metar_ETAR): failed to open stream: Permission denied in /var/www/metroair/shared/private/library/orig_library/lib_airport.php on line 346

Warning: fwrite() expects parameter 1 to be resource, boolean given in /var/www/metroair/shared/private/library/orig_library/lib_airport.php on line 347

Warning: fclose() expects parameter 1 to be resource, boolean given in /var/www/metroair/shared/private/library/orig_library/lib_airport.php on line 348

Warning: fopen(/var/www/metroair/shared/private/wxdata/TAF/AVWX/taf_ETAR): failed to open stream: Permission denied in /var/www/metroair/shared/private/library/orig_library/lib_airport.php on line 533

Warning: fwrite() expects parameter 1 to be resource, boolean given in /var/www/metroair/shared/private/library/orig_library/lib_airport.php on line 534

Warning: fclose() expects parameter 1 to be resource, boolean given in /var/www/metroair/shared/private/library/orig_library/lib_airport.php on line 535

MET9201 - Ramstein AFB to Baltimore

Airbus A330-243
792MT - Spare/Charter/Ad-Hoc
8 hrs 00 mins
3481 nm
Charter - M | TU | TH

Departure

Departing from
Ramstein AFB (RMS)
Departure gate
Ramp
Scheduled Departure
GMT 1500
Local 1700
METAR ETAR 161219Z 04008KT 9999 SCT029 00/M04 A3025 RMK AO2A
TAF TAF AMD ETAR 161035Z 1610/1716 05006KT 9999 SCT015 QNH3024INS BECMG 1702/1703 05010G20KT 9999 SCT010 BKN025 QNH3046INS TXM04/1615Z TNM08/1700Z
  • No charts available

Arrival

Arriving at
Baltimore (BWI)
Arrival gate
Scheduled Arrival
GMT 2300
Local 1800
METAR KBWI 161154Z 07003KT 10SM OVC036 01/M03 A3046 RMK AO2 SLP316 T00111033 10011 20000 53004
TAF KBWI 161129Z 1612/1718 00000KT P6SM OVC030 FM162300 VRB03KT P6SM OVC015 FM171200 VRB03KT 2SM -SHRA OVC015

Route Map

Return Flights

MET9200
Airbus A330-243
1000 GMT

Popularity

Hub Current Bids PiReps this month Total PiReps
KMCI 0 0 0
KLAX 0 0 0
KBOS 0 0 0